sensor_id;sensor_type;location;lat;lon;timestamp;temperature;humidity
31687;DHT22;18285;51.330;4.946;2023-05-15T00:03:04;23.40;43.60
31687;DHT22;18285;51.330;4.946;2023-05-15T00:27:15;23.40;43.40
31687;DHT22;18285;51.330;4.946;2023-05-15T00:51:26;23.30;43.00
31687;DHT22;18285;51.330;4.946;2023-05-15T01:15:36;23.40;42.90
31687;DHT22;18285;51.330;4.946;2023-05-15T01:39:59;23.40;42.70
31687;DHT22;18285;51.330;4.946;2023-05-15T02:04:12;23.30;42.30
31687;DHT22;18285;51.330;4.946;2023-05-15T02:28:29;23.30;42.20
31687;DHT22;18285;51.330;4.946;2023-05-15T02:52:41;23.30;42.00
31687;DHT22;18285;51.330;4.946;2023-05-15T03:16:53;23.20;42.00
31687;DHT22;18285;51.330;4.946;2023-05-15T03:41:03;23.30;41.90
31687;DHT22;18285;51.330;4.946;2023-05-15T04:05:14;23.20;42.30
31687;DHT22;18285;51.330;4.946;2023-05-15T04:29:25;23.20;42.60
31687;DHT22;18285;51.330;4.946;2023-05-15T04:53:35;23.20;42.50
31687;DHT22;18285;51.330;4.946;2023-05-15T05:17:46;23.20;42.30
31687;DHT22;18285;51.330;4.946;2023-05-15T05:41:57;23.20;42.20
31687;DHT22;18285;51.330;4.946;2023-05-15T06:06:08;23.20;42.10
31687;DHT22;18285;51.330;4.946;2023-05-15T06:30:18;22.80;41.50
31687;DHT22;18285;51.330;4.946;2023-05-15T06:54:29;22.10;42.20
31687;DHT22;18285;51.330;4.946;2023-05-15T07:18:40;21.90;43.00
31687;DHT22;18285;51.330;4.946;2023-05-15T07:42:50;22.20;43.00
31687;DHT22;18285;51.330;4.946;2023-05-15T08:07:01;22.50;42.80
31687;DHT22;18285;51.330;4.946;2023-05-15T08:31:12;22.70;42.80
31687;DHT22;18285;51.330;4.946;2023-05-15T08:55:23;22.80;43.10
31687;DHT22;18285;51.330;4.946;2023-05-15T09:19:33;22.80;43.40
31687;DHT22;18285;51.330;4.946;2023-05-15T09:43:44;22.90;43.50
31687;DHT22;18285;51.330;4.946;2023-05-15T10:07:57;23.00;43.40
31687;DHT22;18285;51.330;4.946;2023-05-15T10:32:08;23.00;43.40
31687;DHT22;18285;51.330;4.946;2023-05-15T10:56:19;23.00;43.50
31687;DHT22;18285;51.330;4.946;2023-05-15T11:20:41;23.10;43.40
31687;DHT22;18285;51.330;4.946;2023-05-15T11:44:51;23.10;44.30
31687;DHT22;18285;51.330;4.946;2023-05-15T12:09:03;23.10;44.70
31687;DHT22;18285;51.330;4.946;2023-05-15T12:33:14;23.10;44.70
31687;DHT22;18285;51.330;4.946;2023-05-15T12:57:25;23.10;44.60
31687;DHT22;18285;51.330;4.946;2023-05-15T13:21:36;23.10;44.90
31687;DHT22;18285;51.330;4.946;2023-05-15T13:45:47;23.10;44.90
31687;DHT22;18285;51.330;4.946;2023-05-15T14:09:58;23.20;45.80
31687;DHT22;18285;51.330;4.946;2023-05-15T14:34:08;23.10;45.30
31687;DHT22;18285;51.330;4.946;2023-05-15T14:58:19;23.10;45.00
31687;DHT22;18285;51.330;4.946;2023-05-15T15:22:30;23.20;44.30
31687;DHT22;18285;51.330;4.946;2023-05-15T15:46:41;23.20;44.10
31687;DHT22;18285;51.330;4.946;2023-05-15T16:10:52;23.10;44.40
31687;DHT22;18285;51.330;4.946;2023-05-15T16:35:04;23.10;45.30
31687;DHT22;18285;51.330;4.946;2023-05-15T16:59:14;23.10;45.10
31687;DHT22;18285;51.330;4.946;2023-05-15T17:23:25;23.10;45.70
31687;DHT22;18285;51.330;4.946;2023-05-15T17:47:36;23.10;45.00
31687;DHT22;18285;51.330;4.946;2023-05-15T18:11:47;23.10;44.60
31687;DHT22;18285;51.330;4.946;2023-05-15T18:35:57;23.10;44.40
31687;DHT22;18285;51.330;4.946;2023-05-15T19:00:08;23.10;44.30
31687;DHT22;18285;51.330;4.946;2023-05-15T19:24:20;23.10;43.80
31687;DHT22;18285;51.330;4.946;2023-05-15T19:48:30;23.20;42.90
31687;DHT22;18285;51.330;4.946;2023-05-15T20:12:41;23.10;42.40
31687;DHT22;18285;51.330;4.946;2023-05-15T20:36:52;23.10;42.40
31687;DHT22;18285;51.330;4.946;2023-05-15T21:01:03;23.10;42.10
31687;DHT22;18285;51.330;4.946;2023-05-15T21:25:15;23.00;41.40
31687;DHT22;18285;51.330;4.946;2023-05-15T21:49:28;23.10;41.60
31687;DHT22;18285;51.330;4.946;2023-05-15T22:13:39;23.00;42.30
31687;DHT22;18285;51.330;4.946;2023-05-15T22:37:49;23.00;40.70
31687;DHT22;18285;51.330;4.946;2023-05-15T23:02:00;23.00;40.30
31687;DHT22;18285;51.330;4.946;2023-05-15T23:26:11;23.00;39.50
31687;DHT22;18285;51.330;4.946;2023-05-15T23:50:21;23.00;39.10
